Time;durP1;ratioP1;P1;durP2;ratioP2;P2;SDS_P1;SDS_P2;PMS_P1;PMS_P2;Temp;Humidity;BMP_temperature;BMP_pressure;BME280_temperature;BME280_humidity;BME280_pressure;Samples;Min_cycle;Max_cycle;Signal;HPM_P1;HPM_P2
2022/12/11 00:00:07;;;;;;;5.38;3.38;;;-3.30;99.90;;;;;;5063697;28;20468;-77
2022/12/11 00:02:34;;;;;;;4.88;3.30;;;-3.20;99.90;;;;;;5029705;28;20059;-76
2022/12/11 00:05:01;;;;;;;5.50;3.58;;;-3.20;99.90;;;;;;5046780;28;20391;-76
2022/12/11 00:07:27;;;;;;;4.82;2.83;;;-3.30;99.90;;;;;;5029619;28;20049;-77
2022/12/11 00:09:55;;;;;;;6.95;3.90;;;-3.30;99.90;;;;;;5047614;28;20420;-76
2022/12/11 00:12:22;;;;;;;5.43;3.88;;;-3.30;99.90;;;;;;5060217;28;20045;-76
2022/12/11 00:14:49;;;;;;;6.03;2.90;;;-3.30;99.90;;;;;;5059815;28;20389;-76
2022/12/11 00:17:16;;;;;;;4.65;2.85;;;-3.30;99.90;;;;;;5062889;28;20399;-76
2022/12/11 00:19:42;;;;;;;5.00;3.00;;;-3.40;99.90;;;;;;5046474;28;20092;-76
2022/12/11 00:22:09;;;;;;;3.47;2.53;;;-3.40;99.90;;;;;;5062341;28;20052;-76
2022/12/11 00:24:36;;;;;;;4.75;3.60;;;-3.30;99.90;;;;;;5062957;28;20159;-76
2022/12/11 00:27:02;;;;;;;4.93;3.22;;;-3.30;99.90;;;;;;5029663;28;20496;-76
2022/12/11 00:29:29;;;;;;;4.53;2.90;;;-3.30;99.90;;;;;;5045394;28;20049;-77
2022/12/11 00:31:56;;;;;;;3.88;2.70;;;-3.40;99.90;;;;;;5064391;28;20463;-76
2022/12/11 00:34:23;;;;;;;5.10;3.03;;;-3.40;99.90;;;;;;5045808;28;20128;-76
2022/12/11 00:36:49;;;;;;;3.33;2.38;;;-3.40;99.90;;;;;;5063635;28;20059;-77
2022/12/11 00:39:16;;;;;;;4.25;2.70;;;-3.40;99.90;;;;;;5045905;28;20054;-77
2022/12/11 00:41:43;;;;;;;4.03;2.75;;;-3.40;99.90;;;;;;5063302;28;20059;-76
2022/12/11 00:44:10;;;;;;;3.38;2.75;;;-3.40;99.90;;;;;;5044943;28;20128;-76
2022/12/11 00:46:37;;;;;;;4.63;3.40;;;-3.50;99.90;;;;;;5029815;28;20135;-76
2022/12/11 00:49:03;;;;;;;4.43;2.97;;;-3.50;99.90;;;;;;5045786;28;20423;-76
2022/12/11 00:51:30;;;;;;;3.92;2.35;;;-3.50;99.90;;;;;;5045411;28;20048;-76
2022/12/11 00:53:57;;;;;;;4.13;3.03;;;-3.50;99.90;;;;;;5061804;28;20419;-76
2022/12/11 00:56:24;;;;;;;5.68;3.15;;;-3.50;99.90;;;;;;5045747;28;20490;-77
2022/12/11 00:58:51;;;;;;;5.45;2.80;;;-3.50;99.90;;;;;;5044348;28;20091;-77
2022/12/11 01:01:19;;;;;;;4.05;2.97;;;-3.60;99.90;;;;;;5061830;28;20048;-76
2022/12/11 01:03:46;;;;;;;6.13;3.00;;;-3.60;99.90;;;;;;5028662;28;20052;-76
2022/12/11 01:06:18;;;;;;;6.47;3.30;;;-3.60;99.90;;;;;;5045048;28;20416;-76
2022/12/11 01:08:45;;;;;;;5.13;2.80;;;-3.60;99.90;;;;;;5029197;28;20052;-76
2022/12/11 01:11:13;;;;;;;4.82;2.92;;;-3.60;99.90;;;;;;5045343;28;20395;-76
2022/12/11 01:13:40;;;;;;;5.57;3.10;;;-3.60;99.90;;;;;;5027857;28;20153;-76
2022/12/11 01:16:14;;;;;;;4.47;2.88;;;-3.60;99.90;;;;;;5062274;28;20052;-76
2022/12/11 01:18:41;;;;;;;3.25;2.45;;;-3.60;99.90;;;;;;5028605;28;20443;-76
2022/12/11 01:21:10;;;;;;;4.07;2.70;;;-3.60;99.90;;;;;;5060667;28;20063;-77
2022/12/11 01:23:37;;;;;;;4.60;3.20;;;-3.60;99.90;;;;;;5044898;28;20779;-76
2022/12/11 01:26:09;;;;;;;4.85;2.92;;;-3.50;99.90;;;;;;5045812;28;20142;-76
2022/12/11 01:28:36;;;;;;;4.05;3.00;;;-3.50;99.90;;;;;;5061212;28;20122;-77
2022/12/11 01:31:07;;;;;;;7.00;4.75;;;-3.50;99.90;;;;;;5028514;28;20053;-77
2022/12/11 01:33:33;;;;;;;4.88;3.05;;;-3.50;99.90;;;;;;5044784;28;20102;-77
2022/12/11 01:36:01;;;;;;;4.40;2.90;;;-3.50;99.90;;;;;;5044572;28;20123;-76
2022/12/11 01:38:27;;;;;;;4.88;2.58;;;-3.60;99.90;;;;;;5061644;28;20373;-77
2022/12/11 01:40:54;;;;;;;4.18;2.88;;;-3.60;99.90;;;;;;5028809;28;20088;-76
2022/12/11 01:43:21;;;;;;;3.33;2.15;;;-3.60;99.90;;;;;;5061520;28;20522;-76
2022/12/11 01:45:48;;;;;;;4.20;2.85;;;-3.60;99.90;;;;;;5061323;28;20060;-76
2022/12/11 01:48:26;;;;;;;3.90;2.20;;;-3.60;99.90;;;;;;5028284;28;20110;-76
2022/12/11 01:50:55;;;;;;;4.15;2.55;;;-3.60;99.90;;;;;;5028265;28;20087;-77
2022/12/11 01:53:27;;;;;;;3.47;2.42;;;-3.60;99.90;;;;;;5044574;28;20060;-77
2022/12/11 01:55:54;;;;;;;3.17;2.22;;;-3.70;99.90;;;;;;5029090;28;20306;-76
2022/12/11 01:58:22;;;;;;;3.92;2.65;;;-3.70;99.90;;;;;;5027635;28;20055;-76
2022/12/11 02:00:48;;;;;;;3.33;2.58;;;-3.60;99.90;;;;;;5044593;28;20054;-76
2022/12/11 02:03:15;;;;;;;4.40;2.97;;;-3.70;99.90;;;;;;5043915;28;20430;-76
2022/12/11 02:05:42;;;;;;;3.03;2.50;;;-3.60;99.90;;;;;;5047527;28;20071;-76
2022/12/11 02:08:09;;;;;;;3.53;2.90;;;-3.60;99.90;;;;;;5063634;28;20049;-76
2022/12/11 02:10:47;;;;;;;4.30;2.90;;;-3.60;99.90;;;;;;5030592;28;20443;-76
2022/12/11 02:13:32;;;;;;;4.82;3.17;;;-3.60;99.90;;;;;;5030510;28;20491;-77
2022/12/11 02:16:34;;;;;;;4.80;2.67;;;-3.60;99.90;;;;;;5048075;28;20051;-77
2022/12/11 02:19:18;;;;;;;3.65;2.35;;;-3.60;99.90;;;;;;5064652;28;20162;-76
2022/12/11 02:21:48;;;;;;;3.38;2.22;;;-3.60;99.90;;;;;;5047205;28;20048;-76
2022/12/11 02:24:38;;;;;;;3.78;2.42;;;-3.70;99.90;;;;;;5047585;28;20051;-77
2022/12/11 02:27:08;;;;;;;3.35;2.15;;;-3.70;99.90;;;;;;5064176;28;20094;-76
2022/12/11 02:29:49;;;;;;;4.32;2.70;;;-3.60;99.90;;;;;;5063185;28;20150;-76
2022/12/11 02:32:20;;;;;;;3.60;2.30;;;-3.70;99.90;;;;;;5040729;28;20048;-76
2022/12/11 02:35:02;;;;;;;4.75;2.83;;;-3.60;99.90;;;;;;5041806;28;20131;-76
2022/12/11 02:37:29;;;;;;;4.00;2.25;;;-3.70;99.90;;;;;;5025598;28;20045;-77
2022/12/11 02:39:56;;;;;;;2.85;2.20;;;-3.70;99.90;;;;;;5029921;28;20041;-77
2022/12/11 02:42:25;;;;;;;3.53;2.20;;;-3.70;99.90;;;;;;5055590;28;20059;-77
2022/12/11 02:44:52;;;;;;;3.35;2.22;;;-3.70;99.90;;;;;;5032436;28;20052;-77
2022/12/11 02:47:19;;;;;;;3.85;2.42;;;-3.70;99.90;;;;;;5047118;28;20056;-77
2022/12/11 02:49:47;;;;;;;3.05;2.05;;;-3.70;99.90;;;;;;5047575;28;20070;-76
2022/12/11 02:52:14;;;;;;;3.05;1.90;;;-3.70;99.90;;;;;;5064117;28;20045;-76
2022/12/11 02:54:41;;;;;;;3.15;2.08;;;-3.70;99.90;;;;;;5047781;28;20411;-77
2022/12/11 02:57:11;;;;;;;2.83;2.00;;;-3.70;99.90;;;;;;5064119;28;20052;-76
2022/12/11 02:59:39;;;;;;;3.25;2.15;;;-3.80;99.90;;;;;;5030740;28;20119;-76
2022/12/11 03:02:06;;;;;;;3.30;1.90;;;-3.80;99.90;;;;;;5047888;28;20136;-76
2022/12/11 03:04:34;;;;;;;3.67;2.42;;;-3.80;99.90;;;;;;5030974;28;20144;-76
2022/12/11 03:07:12;;;;;;;3.03;1.63;;;-3.80;99.90;;;;;;5030584;28;20131;-78
2022/12/11 03:09:40;;;;;;;2.70;1.85;;;-3.80;99.90;;;;;;5064481;28;20117;-76
2022/12/11 03:12:12;;;;;;;4.13;2.33;;;-3.90;99.90;;;;;;5047950;28;20056;-76
2022/12/11 03:14:39;;;;;;;1.83;1.40;;;-3.90;99.90;;;;;;5030110;28;20041;-77
2022/12/11 03:17:23;;;;;;;1.85;1.65;;;-3.80;99.90;;;;;;5031811;28;20050;-76
2022/12/11 03:20:06;;;;;;;4.00;2.10;;;-3.90;99.90;;;;;;5031691;28;20091;-77
2022/12/11 03:23:08;;;;;;;2.13;1.52;;;-3.80;99.90;;;;;;5034224;28;20063;-76
2022/12/11 03:25:47;;;;;;;3.60;1.85;;;-3.80;99.90;;;;;;5019840;28;20048;-76
2022/12/11 03:28:18;;;;;;;3.00;1.75;;;-3.90;99.90;;;;;;5051644;28;20052;-76
2022/12/11 03:30:45;;;;;;;3.17;2.03;;;-3.90;99.90;;;;;;5052103;28;20356;-76
2022/12/11 03:33:22;;;;;;;2.33;1.80;;;-3.90;99.90;;;;;;5034454;28;20041;-76
2022/12/11 03:35:58;;;;;;;3.45;2.22;;;-3.90;99.90;;;;;;5035021;28;20127;-76
2022/12/11 03:38:29;;;;;;;2.40;1.80;;;-3.90;99.90;;;;;;5051540;28;20056;-75
2022/12/11 03:40:58;;;;;;;3.65;2.40;;;-3.90;99.90;;;;;;5035180;28;20179;-76
2022/12/11 03:43:24;;;;;;;5.63;2.40;;;-3.90;99.90;;;;;;5049794;28;20067;-76
2022/12/11 03:45:51;;;;;;;3.85;2.17;;;-3.90;99.90;;;;;;5050963;28;20057;-76
2022/12/11 03:48:18;;;;;;;3.05;1.90;;;-3.90;99.90;;;;;;5034545;28;20132;-76
2022/12/11 03:50:45;;;;;;;3.53;2.05;;;-4.00;99.90;;;;;;5051053;28;20058;-76
2022/12/11 03:53:11;;;;;;;2.80;1.80;;;-3.90;99.90;;;;;;5050728;28;20135;-76
2022/12/11 03:55:38;;;;;;;3.50;2.55;;;-4.00;99.90;;;;;;5050543;28;20531;-76
2022/12/11 03:58:05;;;;;;;3.03;1.85;;;-4.00;99.90;;;;;;5033326;28;20526;-76
2022/12/11 04:00:32;;;;;;;2.47;1.65;;;-4.00;99.90;;;;;;5068790;28;20051;-76
2022/12/11 04:03:14;;;;;;;2.80;1.60;;;-4.00;99.90;;;;;;5050063;28;20414;-77
2022/12/11 04:05:53;;;;;;;2.38;1.75;;;-4.00;99.90;;;;;;5067288;28;20163;-76
2022/12/11 04:08:20;;;;;;;1.92;1.40;;;-4.10;99.90;;;;;;5032836;28;20044;-77
2022/12/11 04:11:33;;;;;;;3.20;1.95;;;-4.10;99.90;;;;;;5066397;28;20040;-77
2022/12/11 04:13:35;;;;;;;1.85;1.58;;;-4.10;99.90;;;;;;5065386;28;20059;-77
2022/12/11 04:16:02;;;;;;;3.00;2.03;;;-4.10;99.90;;;;;;5050406;28;20058;-77
2022/12/11 04:24:15;;;;;;;2.30;1.70;;;-4.10;99.90;;;;;;5067101;28;20055;-76
2022/12/11 04:26:43;;;;;;;3.20;2.20;;;-4.10;99.90;;;;;;5036624;28;20565;-76
2022/12/11 04:29:10;;;;;;;3.33;1.83;;;-4.10;99.90;;;;;;5065701;28;20499;-76
2022/12/11 04:31:36;;;;;;;1.80;1.55;;;-4.10;99.90;;;;;;5033586;28;20047;-77
2022/12/11 04:34:03;;;;;;;3.13;1.83;;;-4.10;99.90;;;;;;5065744;28;20055;-77
2022/12/11 04:36:30;;;;;;;3.45;2.17;;;-4.10;99.90;;;;;;5032593;28;20048;-76
2022/12/11 04:38:57;;;;;;;4.00;2.58;;;-4.20;99.90;;;;;;5033486;28;20080;-76
2022/12/11 04:41:23;;;;;;;2.65;1.88;;;-4.10;99.90;;;;;;5050044;28;20507;-76
2022/12/11 04:43:50;;;;;;;3.00;1.75;;;-4.10;99.90;;;;;;5032356;28;20052;-76
2022/12/11 04:46:40;;;;;;;7.60;3.28;;;-4.10;99.90;;;;;;5049812;28;20040;-76
2022/12/11 04:49:09;;;;;;;2.92;1.80;;;-4.10;99.90;;;;;;5066539;28;20123;-76
2022/12/11 04:51:35;;;;;;;2.50;1.77;;;-4.10;99.90;;;;;;5049380;28;20045;-77
2022/12/11 04:54:02;;;;;;;2.25;1.67;;;-4.10;99.90;;;;;;5065743;28;20543;-77
2022/12/11 04:56:29;;;;;;;3.03;1.90;;;-4.10;99.90;;;;;;5066274;28;20127;-76
2022/12/11 04:58:56;;;;;;;5.63;2.58;;;-4.20;99.90;;;;;;5065553;28;20411;-76
2022/12/11 05:01:22;;;;;;;2.60;1.75;;;-4.20;99.90;;;;;;5049834;28;20147;-76
2022/12/11 05:03:49;;;;;;;3.30;2.00;;;-4.20;99.90;;;;;;5048892;28;20136;-76
2022/12/11 05:06:16;;;;;;;2.78;1.60;;;-4.20;99.90;;;;;;5032268;28;20624;-76
2022/12/11 05:08:44;;;;;;;2.38;1.60;;;-4.20;99.90;;;;;;5049511;28;20067;-76
2022/12/11 05:11:12;;;;;;;3.92;1.58;;;-4.20;99.90;;;;;;5033406;28;20129;-75
2022/12/11 05:13:38;;;;;;;2.78;1.75;;;-4.20;99.90;;;;;;5031829;28;20048;-77
2022/12/11 05:16:06;;;;;;;2.33;1.77;;;-4.10;99.90;;;;;;5065790;28;20080;-76
2022/12/11 05:18:33;;;;;;;2.70;1.95;;;-4.10;99.90;;;;;;5032433;28;20139;-77
2022/12/11 05:21:05;;;;;;;2.45;1.90;;;-4.10;99.90;;;;;;5032288;28;20326;-77
2022/12/11 05:23:32;;;;;;;1.92;1.42;;;-4.10;99.90;;;;;;5032543;28;20048;-77
2022/12/11 05:26:01;;;;;;;3.58;2.03;;;-4.20;99.90;;;;;;5033059;28;20767;-76
2022/12/11 05:28:31;;;;;;;3.00;1.85;;;-4.20;99.90;;;;;;5031922;28;20076;-76
2022/12/11 05:30:59;;;;;;;2.75;1.65;;;-4.20;99.90;;;;;;5065658;28;20676;-76
2022/12/11 05:33:26;;;;;;;3.05;1.90;;;-4.20;99.90;;;;;;5032263;28;20082;-76
2022/12/11 05:35:53;;;;;;;2.78;1.63;;;-4.20;99.90;;;;;;5048205;28;21332;-76
2022/12/11 05:38:20;;;;;;;3.00;1.73;;;-4.30;99.90;;;;;;5048511;28;20051;-77
2022/12/11 05:41:00;;;;;;;2.92;1.58;;;-4.30;99.90;;;;;;5032693;28;20063;-77
2022/12/11 05:43:28;;;;;;;2.67;1.75;;;-4.30;99.90;;;;;;5047537;28;20796;-77
2022/12/11 05:45:55;;;;;;;2.37;1.63;;;-4.30;99.90;;;;;;5031159;28;20150;-76
2022/12/11 05:48:22;;;;;;;2.33;1.40;;;-4.30;99.90;;;;;;5042214;28;20129;-77
2022/12/11 05:50:59;;;;;;;2.63;1.83;;;-4.30;99.90;;;;;;5026839;28;20080;-77
2022/12/11 05:53:26;;;;;;;1.83;1.35;;;-4.30;99.90;;;;;;5046455;28;20418;-77
2022/12/11 05:55:53;;;;;;;2.05;1.40;;;-4.40;99.90;;;;;;5063669;28;20056;-77
2022/12/11 05:58:20;;;;;;;2.03;1.30;;;-4.40;99.90;;;;;;5029081;28;20554;-77
2022/12/11 06:00:47;;;;;;;2.92;1.77;;;-4.40;99.90;;;;;;5062843;28;20088;-76
2022/12/11 06:03:14;;;;;;;2.72;1.67;;;-4.40;99.90;;;;;;5043973;28;20052;-76
2022/12/11 06:05:41;;;;;;;1.73;1.48;;;-4.40;99.90;;;;;;5061292;28;20512;-77
2022/12/11 06:08:08;;;;;;;3.03;1.60;;;-4.40;99.90;;;;;;5043941;28;20064;-77
2022/12/11 06:10:35;;;;;;;2.70;1.70;;;-4.40;99.90;;;;;;5061422;28;20127;-77
2022/12/11 06:13:02;;;;;;;2.42;1.60;;;-4.40;99.90;;;;;;5045034;28;20056;-77
2022/12/11 06:15:28;;;;;;;2.60;1.60;;;-4.40;99.90;;;;;;5048270;28;20102;-77
2022/12/11 06:17:55;;;;;;;2.90;2.22;;;-4.40;99.90;;;;;;5047337;28;20080;-77
2022/12/11 06:20:22;;;;;;;3.65;1.90;;;-4.40;99.90;;;;;;5044437;28;20056;-77
2022/12/11 06:22:49;;;;;;;3.03;1.90;;;-4.40;99.90;;;;;;5045180;28;20076;-77
2022/12/11 06:25:16;;;;;;;3.00;2.20;;;-4.30;99.90;;;;;;5027332;28;20041;-77
2022/12/11 06:27:42;;;;;;;2.70;1.85;;;-4.30;99.90;;;;;;5055810;28;20067;-77
2022/12/11 06:30:10;;;;;;;2.90;1.63;;;-4.40;99.90;;;;;;5061572;28;20048;-76
2022/12/11 06:32:37;;;;;;;2.60;1.75;;;-4.40;99.90;;;;;;5027048;28;20125;-77
2022/12/11 06:35:04;;;;;;;3.00;2.10;;;-4.40;99.90;;;;;;5060516;28;20534;-76
2022/12/11 06:37:31;;;;;;;2.70;1.65;;;-4.40;99.90;;;;;;5058731;28;20156;-77
2022/12/11 06:39:58;;;;;;;2.72;1.88;;;-4.40;99.90;;;;;;5040279;28;20055;-78
2022/12/11 06:42:24;;;;;;;3.47;2.58;;;-4.40;99.90;;;;;;5040106;28;20485;-75
2022/12/11 06:44:51;;;;;;;2.95;2.05;;;-4.40;99.90;;;;;;5059817;28;20099;-78
2022/12/11 06:47:18;;;;;;;2.83;1.50;;;-4.50;99.90;;;;;;5040718;28;20051;-76
2022/12/11 06:49:45;;;;;;;3.17;1.88;;;-4.50;99.90;;;;;;5042578;28;20045;-76
2022/12/11 06:52:12;;;;;;;3.30;1.83;;;-4.50;99.90;;;;;;5042572;28;20099;-75
2022/12/11 06:54:44;;;;;;;2.88;1.90;;;-4.50;99.90;;;;;;5037423;28;20061;-76
2022/12/11 06:57:11;;;;;;;3.87;2.10;;;-4.40;99.90;;;;;;5035842;28;20052;-76
2022/12/11 06:59:38;;;;;;;2.35;1.83;;;-4.40;99.90;;;;;;5033284;28;20058;-76
2022/12/11 07:02:04;;;;;;;3.33;1.80;;;-4.40;99.90;;;;;;5046222;28;20080;-76
2022/12/11 07:04:31;;;;;;;2.65;1.83;;;-4.30;99.90;;;;;;5046508;28;20107;-76
2022/12/11 07:06:58;;;;;;;3.83;1.88;;;-4.20;99.90;;;;;;5033670;28;20048;-76
2022/12/11 07:09:25;;;;;;;2.35;1.60;;;-4.20;99.90;;;;;;5046599;28;20044;-76
2022/12/11 07:11:52;;;;;;;3.47;2.00;;;-4.10;99.90;;;;;;5046751;28;20052;-75
2022/12/11 07:14:19;;;;;;;2.95;1.60;;;-4.00;99.90;;;;;;5039333;28;20063;-76
2022/12/11 07:16:46;;;;;;;2.38;1.60;;;-4.00;99.90;;;;;;5035623;28;20055;-76
2022/12/11 07:19:13;;;;;;;3.53;2.00;;;-3.90;99.90;;;;;;5035110;28;20056;-78
2022/12/11 07:21:39;;;;;;;2.28;1.63;;;-3.80;99.90;;;;;;5043362;28;20045;-77
2022/12/11 07:24:06;;;;;;;2.88;1.58;;;-3.70;99.90;;;;;;5048683;28;20045;-78
2022/12/11 07:26:34;;;;;;;1.60;1.33;;;-3.70;99.90;;;;;;5028306;28;20312;-77
2022/12/11 07:29:00;;;;;;;3.10;2.08;;;-3.60;99.90;;;;;;5052734;28;20583;-77
2022/12/11 07:31:28;;;;;;;2.33;1.42;;;-3.60;99.90;;;;;;5046464;28;20337;-77
2022/12/11 07:33:57;;;;;;;2.38;1.50;;;-3.50;99.90;;;;;;5036267;28;20330;-77
2022/12/11 07:36:24;;;;;;;3.60;1.75;;;-3.50;99.90;;;;;;5045745;28;20056;-78
2022/12/11 07:38:51;;;;;;;2.83;1.65;;;-3.40;99.90;;;;;;5036079;28;20048;-78
2022/12/11 07:41:18;;;;;;;2.60;1.60;;;-3.40;99.90;;;;;;5049796;28;20048;-78
2022/12/11 07:43:45;;;;;;;3.00;1.85;;;-3.40;99.90;;;;;;5049139;28;20445;-77
2022/12/11 07:46:14;;;;;;;3.40;2.00;;;-3.30;99.90;;;;;;5031918;28;20301;-77
2022/12/11 07:48:42;;;;;;;3.30;1.58;;;-3.20;99.90;;;;;;5050230;28;20059;-77
2022/12/11 07:51:13;;;;;;;2.83;1.77;;;-3.20;99.90;;;;;;5032602;28;20051;-78
2022/12/11 07:53:42;;;;;;;2.70;2.00;;;-3.20;99.90;;;;;;5043051;28;20044;-78
2022/12/11 07:56:08;;;;;;;2.75;1.83;;;-3.10;99.90;;;;;;5033542;28;20590;-78
2022/12/11 07:58:37;;;;;;;3.22;2.03;;;-3.10;99.90;;;;;;5044007;28;20133;-78
2022/12/11 08:01:05;;;;;;;2.97;1.75;;;-3.00;99.90;;;;;;5047299;28;20055;-78
2022/12/11 08:03:32;;;;;;;2.70;1.67;;;-2.90;99.90;;;;;;5050625;28;20516;-78
2022/12/11 08:05:59;;;;;;;3.25;2.10;;;-2.90;99.90;;;;;;5045262;28;20064;-77
2022/12/11 08:08:26;;;;;;;2.85;1.73;;;-2.90;99.90;;;;;;5035235;28;20446;-77
2022/12/11 08:10:52;;;;;;;2.47;1.48;;;-2.80;99.90;;;;;;5050412;28;20068;-77
2022/12/11 08:13:19;;;;;;;3.17;2.03;;;-2.80;99.90;;;;;;5034208;28;20535;-77
2022/12/11 08:15:47;;;;;;;2.42;1.67;;;-2.80;99.90;;;;;;5033861;28;20057;-77
2022/12/11 08:18:14;;;;;;;3.38;2.10;;;-2.80;99.90;;;;;;5035863;28;23010;-77
2022/12/11 08:20:41;;;;;;;3.90;2.25;;;-2.80;99.90;;;;;;5048694;28;20491;-77
2022/12/11 08:23:07;;;;;;;3.90;2.47;;;-2.80;99.90;;;;;;5036318;28;20055;-80
2022/12/11 08:25:34;;;;;;;3.35;2.20;;;-2.70;99.90;;;;;;5035095;28;20057;-76
2022/12/11 08:28:01;;;;;;;3.72;2.25;;;-2.70;99.90;;;;;;5035721;28;20490;-77
2022/12/11 08:30:28;;;;;;;5.18;3.22;;;-2.70;99.90;;;;;;5048834;28;20189;-77
2022/12/11 08:32:55;;;;;;;5.57;3.15;;;-2.80;99.90;;;;;;5056245;28;20115;-77
2022/12/11 08:35:22;;;;;;;5.30;4.07;;;-2.70;99.90;;;;;;5046678;28;20140;-77
2022/12/11 08:37:49;;;;;;;6.05;3.22;;;-2.70;99.90;;;;;;5035400;28;20052;-77
2022/12/11 08:40:16;;;;;;;4.07;2.72;;;-2.60;99.90;;;;;;5037819;28;20079;-76
2022/12/11 08:42:43;;;;;;;4.30;2.42;;;-2.60;99.90;;;;;;5039677;28;20138;-77
2022/12/11 08:45:10;;;;;;;4.15;2.45;;;-2.50;99.90;;;;;;5032679;28;20159;-78
2022/12/11 08:47:37;;;;;;;4.75;2.90;;;-2.40;99.90;;;;;;5038271;28;20246;-78
2022/12/11 08:50:04;;;;;;;3.67;2.15;;;-2.40;99.90;;;;;;5056655;28;20396;-77
2022/12/11 08:52:33;;;;;;;3.78;2.97;;;-2.40;99.90;;;;;;5048398;28;20045;-76
2022/12/11 08:55:00;;;;;;;3.08;2.15;;;-2.30;99.90;;;;;;5037367;28;20508;-78
2022/12/11 08:57:27;;;;;;;3.47;2.00;;;-2.30;99.90;;;;;;5034454;28;20143;-76
2022/12/11 08:59:54;;;;;;;3.85;2.30;;;-2.30;99.90;;;;;;5039891;28;20048;-77
2022/12/11 09:02:20;;;;;;;3.28;2.00;;;-2.30;99.90;;;;;;5052659;28;20092;-77
2022/12/11 09:04:47;;;;;;;4.03;2.60;;;-2.20;99.90;;;;;;5052199;28;20127;-77
2022/12/11 09:07:14;;;;;;;2.83;2.15;;;-2.20;99.90;;;;;;5048727;28;20252;-78
2022/12/11 09:09:41;;;;;;;2.92;1.70;;;-2.10;99.90;;;;;;5047585;28;20075;-77
2022/12/11 09:12:07;;;;;;;3.90;1.83;;;-2.10;99.90;;;;;;5034384;28;20152;-77
2022/12/11 09:14:34;;;;;;;3.65;2.22;;;-2.00;99.90;;;;;;5035056;28;20425;-76
2022/12/11 09:17:02;;;;;;;2.58;1.67;;;-2.00;99.90;;;;;;5033587;28;20045;-77
2022/12/11 09:19:29;;;;;;;3.47;2.28;;;-2.00;99.90;;;;;;5047139;28;20053;-77
2022/12/11 09:21:58;;;;;;;3.78;2.13;;;-1.90;99.90;;;;;;5044949;28;20550;-77
2022/12/11 09:24:25;;;;;;;3.88;2.80;;;-1.90;99.90;;;;;;5031786;28;20049;-77
2022/12/11 09:26:53;;;;;;;3.13;2.22;;;-1.80;99.90;;;;;;5047298;28;20132;-77
2022/12/11 09:29:20;;;;;;;3.88;2.60;;;-1.90;99.90;;;;;;5043741;28;20049;-77
2022/12/11 09:31:48;;;;;;;3.33;1.90;;;-1.80;99.90;;;;;;5049015;28;20139;-77
2022/12/11 09:34:15;;;;;;;3.13;2.28;;;-1.80;99.90;;;;;;5048616;28;20103;-77
2022/12/11 09:36:43;;;;;;;4.72;3.38;;;-1.80;99.90;;;;;;5032323;28;20132;-77
2022/12/11 09:39:10;;;;;;;4.50;3.33;;;-1.80;99.90;;;;;;5035662;28;20056;-77
2022/12/11 09:41:56;;;;;;;4.85;2.90;;;-1.80;99.90;;;;;;5046516;28;20140;-77
2022/12/11 09:44:30;;;;;;;5.32;2.88;;;-1.80;99.90;;;;;;5048240;28;20052;-78
2022/12/11 09:46:57;;;;;;;3.45;2.42;;;-1.70;99.90;;;;;;5045074;28;20127;-77
2022/12/11 09:49:29;;;;;;;3.45;2.03;;;-1.60;99.90;;;;;;5021461;28;20135;-77
2022/12/11 09:52:06;;;;;;;4.23;2.63;;;-1.50;99.90;;;;;;5052287;28;20094;-78
2022/12/11 09:54:32;;;;;;;4.20;2.78;;;-1.50;99.90;;;;;;5046195;28;20072;-78
2022/12/11 09:57:11;;;;;;;4.55;3.05;;;-1.40;99.90;;;;;;5046313;28;21573;-78
2022/12/11 10:00:03;;;;;;;3.97;2.58;;;-1.40;99.90;;;;;;5053236;28;20044;-78
2022/12/11 10:02:45;;;;;;;5.32;2.25;;;-1.30;99.90;;;;;;5027806;28;20483;-78
2022/12/11 10:05:44;;;;;;;4.07;2.72;;;-1.30;99.90;;;;;;5044689;28;20041;-78
2022/12/11 10:08:31;;;;;;;5.90;2.85;;;-1.30;99.90;;;;;;5038555;28;20532;-78
2022/12/11 10:11:13;;;;;;;4.20;2.40;;;-1.20;99.90;;;;;;5033329;28;20175;-77
2022/12/11 10:13:44;;;;;;;4.72;3.30;;;-1.20;99.90;;;;;;5048334;28;20095;-77
2022/12/11 10:16:16;;;;;;;5.45;3.33;;;-1.10;99.90;;;;;;5049950;28;20140;-79
2022/12/11 10:18:44;;;;;;;4.33;2.87;;;-1.00;99.90;;;;;;5044703;28;20079;-80
2022/12/11 10:21:11;;;;;;;4.50;3.20;;;-0.90;99.90;;;;;;5050438;28;20739;-81
2022/12/11 10:23:49;;;;;;;5.43;2.95;;;-0.80;99.90;;;;;;5046475;28;20772;-80
2022/12/11 10:26:18;;;;;;;4.20;2.97;;;-0.80;99.90;;;;;;5050900;28;20072;-81
2022/12/11 10:28:45;;;;;;;4.13;2.90;;;-0.80;99.90;;;;;;5051940;28;20052;-81
2022/12/11 10:31:15;;;;;;;5.53;3.83;;;-0.80;99.90;;;;;;5029553;28;20059;-79
2022/12/11 10:33:51;;;;;;;4.70;3.13;;;-0.80;99.90;;;;;;5039378;28;20044;-82
2022/12/11 10:36:21;;;;;;;6.03;3.65;;;-0.80;99.90;;;;;;5045268;28;20155;-81
2022/12/11 10:38:48;;;;;;;4.55;3.00;;;-0.90;99.90;;;;;;5051985;28;20056;-82
2022/12/11 10:41:20;;;;;;;6.75;3.60;;;-0.80;99.90;;;;;;5052080;28;20041;-80
2022/12/11 10:43:48;;;;;;;4.38;3.13;;;-0.80;99.90;;;;;;5037675;28;20432;-82
2022/12/11 10:46:16;;;;;;;3.78;2.70;;;-0.80;99.90;;;;;;5046989;28;20057;-80
2022/12/11 10:48:54;;;;;;;4.63;2.85;;;-0.70;99.90;;;;;;5039396;28;20044;-80
2022/12/11 10:51:32;;;;;;;4.03;2.58;;;-0.70;99.90;;;;;;5030214;28;20074;-80
2022/12/11 10:54:07;;;;;;;5.07;2.83;;;-0.60;99.90;;;;;;5036792;28;20162;-81
2022/12/11 10:56:34;;;;;;;3.92;2.30;;;-0.50;99.90;;;;;;5054432;28;20044;-81
2022/12/11 10:59:01;;;;;;;4.25;2.63;;;-0.50;99.90;;;;;;5044880;28;20068;-81
2022/12/11 11:01:31;;;;;;;4.25;3.10;;;-0.40;99.90;;;;;;5037443;28;20140;-81
2022/12/11 11:04:03;;;;;;;3.90;2.65;;;-0.30;99.90;;;;;;5029174;28;20410;-81
2022/12/11 11:06:32;;;;;;;3.65;2.40;;;-0.30;99.90;;;;;;5037761;28;20067;-81
2022/12/11 11:09:00;;;;;;;5.22;3.38;;;-0.30;99.90;;;;;;5030866;28;20507;-74
2022/12/11 11:11:31;;;;;;;5.63;3.75;;;-0.20;99.90;;;;;;5036058;28;20048;-74
2022/12/11 11:14:19;;;;;;;6.45;3.97;;;-0.20;99.90;;;;;;5047158;28;20052;-74
2022/12/11 11:16:47;;;;;;;3.83;2.95;;;-0.30;99.90;;;;;;5052681;28;20399;-74
2022/12/11 11:19:20;;;;;;;5.30;3.47;;;-0.20;99.90;;;;;;5038284;28;20045;-75
2022/12/11 11:21:58;;;;;;;5.70;3.17;;;-0.20;99.90;;;;;;5052454;28;20144;-74
2022/12/11 11:24:33;;;;;;;4.93;2.92;;;-0.10;99.90;;;;;;5022392;28;20061;-74
2022/12/11 11:27:00;;;;;;;5.28;3.15;;;0.00;99.90;;;;;;5035813;28;20352;-74
2022/12/11 11:29:39;;;;;;;5.00;3.10;;;0.00;99.90;;;;;;5033627;28;20495;-74
2022/12/11 11:32:27;;;;;;;7.60;3.40;;;0.10;99.90;;;;;;5029933;28;20045;-73
2022/12/11 11:35:10;;;;;;;6.88;4.57;;;0.10;99.90;;;;;;5050733;28;20559;-73
2022/12/11 11:37:39;;;;;;;10.07;5.13;;;0.00;99.90;;;;;;5044400;28;20479;-75
2022/12/11 11:40:27;;;;;;;6.90;4.13;;;0.00;99.90;;;;;;5037724;28;20071;-77
2022/12/11 11:43:16;;;;;;;7.85;4.30;;;0.10;99.90;;;;;;5045487;28;20095;-75
2022/12/11 11:45:54;;;;;;;7.13;4.50;;;0.10;99.90;;;;;;5053043;28;20427;-75
2022/12/11 11:48:41;;;;;;;6.22;3.92;;;0.00;99.90;;;;;;5036190;28;20040;-75
2022/12/11 11:51:29;;;;;;;7.03;4.47;;;0.00;99.90;;;;;;5039506;28;20349;-77
2022/12/11 11:53:57;;;;;;;8.02;5.63;;;-0.10;99.90;;;;;;5039916;28;20057;-76
2022/12/11 11:56:30;;;;;;;7.50;5.32;;;-0.10;99.90;;;;;;5036627;28;20290;-75
2022/12/11 11:59:18;;;;;;;7.18;4.93;;;-0.10;99.90;;;;;;5038271;28;20088;-76
2022/12/11 12:01:47;;;;;;;5.43;4.00;;;-0.10;99.90;;;;;;5050159;28;20098;-76
2022/12/11 12:04:14;;;;;;;5.20;3.25;;;0.00;99.90;;;;;;5034666;28;20158;-77
2022/12/11 12:06:57;;;;;;;6.90;4.22;;;0.10;99.90;;;;;;5037134;28;20045;-75
2022/12/11 12:09:33;;;;;;;4.90;2.83;;;0.10;99.90;;;;;;5054929;28;20217;-76
2022/12/11 12:12:18;;;;;;;4.60;2.83;;;0.20;99.90;;;;;;5056494;28;20389;-76
2022/12/11 12:15:06;;;;;;;4.18;2.80;;;0.20;99.90;;;;;;5062209;28;20535;-76
2022/12/11 12:17:39;;;;;;;3.83;2.80;;;0.40;99.90;;;;;;5047654;28;20741;-75
2022/12/11 12:20:12;;;;;;;4.35;2.95;;;0.40;99.90;;;;;;5052197;28;20452;-76
2022/12/11 12:22:42;;;;;;;5.38;2.85;;;0.50;99.90;;;;;;5047964;28;20145;-76
2022/12/11 12:25:56;;;;;;;3.35;2.38;;;0.60;99.90;;;;;;5052792;28;20040;-76
2022/12/11 12:28:29;;;;;;;4.90;2.85;;;0.70;99.90;;;;;;4979629;28;20456;-76
2022/12/11 12:31:16;;;;;;;2.83;2.05;;;0.80;99.90;;;;;;5044163;28;20122;-75
2022/12/11 12:33:59;;;;;;;4.57;2.90;;;0.70;99.90;;;;;;5046845;28;20056;-76
2022/12/11 12:36:54;;;;;;;4.50;2.77;;;0.70;99.90;;;;;;5039785;28;20055;-76
2022/12/11 12:39:47;;;;;;;3.55;2.30;;;0.60;99.90;;;;;;5050446;28;20064;-75
2022/12/11 12:42:23;;;;;;;3.65;2.47;;;0.60;99.90;;;;;;5035221;28;20052;-76
2022/12/11 12:44:56;;;;;;;3.58;2.30;;;0.60;99.90;;;;;;5052403;28;20075;-76
2022/12/11 12:47:23;;;;;;;3.90;2.75;;;0.50;99.90;;;;;;5035184;28;20159;-76
2022/12/11 12:49:50;;;;;;;4.40;2.50;;;0.50;99.90;;;;;;5046891;28;20769;-76
2022/12/11 12:52:18;;;;;;;3.80;2.60;;;0.50;99.90;;;;;;5022394;28;20052;-76
2022/12/11 12:55:12;;;;;;;3.78;2.40;;;0.50;99.90;;;;;;5039549;28;20116;-76
2022/12/11 12:57:33;;;;;;;4.43;2.80;;;0.60;99.90;;;;;;5049135;28;20213;-75
2022/12/11 13:00:00;;;;;;;3.88;2.50;;;0.60;99.90;;;;;;5037126;28;20063;-76
2022/12/11 13:02:27;;;;;;;3.45;2.20;;;0.60;99.90;;;;;;5048369;28;20084;-76
2022/12/11 13:05:05;;;;;;;4.45;3.15;;;0.70;99.90;;;;;;5024156;28;20097;-76
2022/12/11 13:07:32;;;;;;;3.83;2.75;;;0.70;99.90;;;;;;5045556;28;20151;-76
2022/12/11 13:10:21;;;;;;;3.85;2.42;;;0.70;99.90;;;;;;5037984;28;20216;-76